sensor_id;sensor_type;location;lat;lon;timestamp;temperature;humidity
5154;DHT22;2595;53.584;10.084;2022-08-19T00:02:23;21.90;99.90
5154;DHT22;2595;53.584;10.084;2022-08-19T00:04:48;21.90;99.90
5154;DHT22;2595;53.584;10.084;2022-08-19T00:07:18;21.90;99.90
5154;DHT22;2595;53.584;10.084;2022-08-19T00:09:44;21.90;99.90
5154;DHT22;2595;53.584;10.084;2022-08-19T00:12:10;21.90;99.90
5154;DHT22;2595;53.584;10.084;2022-08-19T00:14:37;21.90;99.90
5154;DHT22;2595;53.584;10.084;2022-08-19T00:17:04;21.90;99.90
5154;DHT22;2595;53.584;10.084;2022-08-19T00:19:31;21.80;99.90
5154;DHT22;2595;53.584;10.084;2022-08-19T00:21:58;21.80;99.90
5154;DHT22;2595;53.584;10.084;2022-08-19T00:24:24;21.70;99.90
5154;DHT22;2595;53.584;10.084;2022-08-19T00:26:52;21.70;99.90
5154;DHT22;2595;53.584;10.084;2022-08-19T00:29:20;21.70;99.90
5154;DHT22;2595;53.584;10.084;2022-08-19T00:31:46;21.70;99.90
5154;DHT22;2595;53.584;10.084;2022-08-19T00:34:13;21.60;99.90
5154;DHT22;2595;53.584;10.084;2022-08-19T00:36:40;21.60;99.90
5154;DHT22;2595;53.584;10.084;2022-08-19T00:39:06;21.60;99.90
5154;DHT22;2595;53.584;10.084;2022-08-19T00:41:32;21.60;99.90
5154;DHT22;2595;53.584;10.084;2022-08-19T00:44:11;21.70;99.90
5154;DHT22;2595;53.584;10.084;2022-08-19T00:46:40;21.60;99.90
5154;DHT22;2595;53.584;10.084;2022-08-19T00:49:13;21.70;99.90
5154;DHT22;2595;53.584;10.084;2022-08-19T00:51:41;21.60;99.90
5154;DHT22;2595;53.584;10.084;2022-08-19T00:54:08;21.60;99.90
5154;DHT22;2595;53.584;10.084;2022-08-19T00:56:35;21.60;99.90
5154;DHT22;2595;53.584;10.084;2022-08-19T00:59:02;21.60;99.90
5154;DHT22;2595;53.584;10.084;2022-08-19T01:01:28;21.60;99.90
5154;DHT22;2595;53.584;10.084;2022-08-19T01:03:54;21.50;99.90
5154;DHT22;2595;53.584;10.084;2022-08-19T01:06:20;21.50;99.90
5154;DHT22;2595;53.584;10.084;2022-08-19T01:08:46;21.50;99.90
5154;DHT22;2595;53.584;10.084;2022-08-19T01:11:11;21.60;99.90
5154;DHT22;2595;53.584;10.084;2022-08-19T01:13:37;21.50;99.90
5154;DHT22;2595;53.584;10.084;2022-08-19T01:16:06;21.50;99.90
5154;DHT22;2595;53.584;10.084;2022-08-19T01:18:35;21.60;99.90
5154;DHT22;2595;53.584;10.084;2022-08-19T01:21:08;21.60;99.90
5154;DHT22;2595;53.584;10.084;2022-08-19T01:23:34;21.60;99.90
5154;DHT22;2595;53.584;10.084;2022-08-19T01:26:15;21.60;99.90
5154;DHT22;2595;53.584;10.084;2022-08-19T01:28:43;21.50;99.90
5154;DHT22;2595;53.584;10.084;2022-08-19T01:31:13;21.60;99.90
5154;DHT22;2595;53.584;10.084;2022-08-19T01:33:39;21.50;99.90
5154;DHT22;2595;53.584;10.084;2022-08-19T01:36:07;21.50;99.90
5154;DHT22;2595;53.584;10.084;2022-08-19T01:38:36;21.50;99.90
5154;DHT22;2595;53.584;10.084;2022-08-19T01:41:02;21.50;99.90
5154;DHT22;2595;53.584;10.084;2022-08-19T01:43:28;21.50;99.90
5154;DHT22;2595;53.584;10.084;2022-08-19T01:45:54;21.50;99.90
5154;DHT22;2595;53.584;10.084;2022-08-19T01:48:20;21.50;99.90
5154;DHT22;2595;53.584;10.084;2022-08-19T01:50:45;21.50;99.90
5154;DHT22;2595;53.584;10.084;2022-08-19T01:53:12;21.50;99.90
5154;DHT22;2595;53.584;10.084;2022-08-19T01:55:40;21.50;99.90
5154;DHT22;2595;53.584;10.084;2022-08-19T01:58:09;21.50;99.90
5154;DHT22;2595;53.584;10.084;2022-08-19T02:00:37;21.40;99.90
5154;DHT22;2595;53.584;10.084;2022-08-19T02:03:03;21.30;99.90
5154;DHT22;2595;53.584;10.084;2022-08-19T02:05:28;21.40;99.90
5154;DHT22;2595;53.584;10.084;2022-08-19T02:07:55;21.30;99.90
5154;DHT22;2595;53.584;10.084;2022-08-19T02:10:21;21.30;99.90
5154;DHT22;2595;53.584;10.084;2022-08-19T02:12:48;21.30;99.90
5154;DHT22;2595;53.584;10.084;2022-08-19T02:15:15;21.30;99.90
5154;DHT22;2595;53.584;10.084;2022-08-19T02:17:40;21.30;99.90
5154;DHT22;2595;53.584;10.084;2022-08-19T02:20:07;21.30;99.90
5154;DHT22;2595;53.584;10.084;2022-08-19T02:22:33;21.20;99.90
5154;DHT22;2595;53.584;10.084;2022-08-19T02:24:58;21.20;99.90
5154;DHT22;2595;53.584;10.084;2022-08-19T02:27:25;21.20;99.90
5154;DHT22;2595;53.584;10.084;2022-08-19T02:29:51;21.20;99.90
5154;DHT22;2595;53.584;10.084;2022-08-19T02:32:17;21.20;99.90
5154;DHT22;2595;53.584;10.084;2022-08-19T02:34:45;21.20;99.90
5154;DHT22;2595;53.584;10.084;2022-08-19T02:37:11;21.20;99.90
5154;DHT22;2595;53.584;10.084;2022-08-19T02:39:57;21.20;99.90
5154;DHT22;2595;53.584;10.084;2022-08-19T02:42:24;21.30;99.90
5154;DHT22;2595;53.584;10.084;2022-08-19T02:44:50;21.30;99.90
5154;DHT22;2595;53.584;10.084;2022-08-19T02:47:17;21.20;99.90
5154;DHT22;2595;53.584;10.084;2022-08-19T02:49:44;21.20;99.90
5154;DHT22;2595;53.584;10.084;2022-08-19T02:52:10;21.30;99.90
5154;DHT22;2595;53.584;10.084;2022-08-19T02:54:37;21.30;99.90
5154;DHT22;2595;53.584;10.084;2022-08-19T02:57:04;21.30;99.90
5154;DHT22;2595;53.584;10.084;2022-08-19T02:59:30;21.30;99.90
5154;DHT22;2595;53.584;10.084;2022-08-19T03:01:56;21.20;99.90
5154;DHT22;2595;53.584;10.084;2022-08-19T03:04:22;21.20;99.90
5154;DHT22;2595;53.584;10.084;2022-08-19T03:06:48;21.20;99.90
5154;DHT22;2595;53.584;10.084;2022-08-19T03:09:15;21.20;99.90
5154;DHT22;2595;53.584;10.084;2022-08-19T03:11:41;21.30;99.90
5154;DHT22;2595;53.584;10.084;2022-08-19T03:14:08;21.20;99.90
5154;DHT22;2595;53.584;10.084;2022-08-19T03:16:43;21.20;99.90
5154;DHT22;2595;53.584;10.084;2022-08-19T03:19:10;21.20;99.90
5154;DHT22;2595;53.584;10.084;2022-08-19T03:21:35;21.10;99.90
5154;DHT22;2595;53.584;10.084;2022-08-19T03:24:05;21.20;99.90
5154;DHT22;2595;53.584;10.084;2022-08-19T03:26:31;21.20;99.90
5154;DHT22;2595;53.584;10.084;2022-08-19T03:29:01;21.20;99.90
5154;DHT22;2595;53.584;10.084;2022-08-19T03:31:27;21.20;99.90
5154;DHT22;2595;53.584;10.084;2022-08-19T03:33:53;21.20;99.90
5154;DHT22;2595;53.584;10.084;2022-08-19T03:36:24;21.20;99.90
5154;DHT22;2595;53.584;10.084;2022-08-19T03:38:53;21.20;99.90
5154;DHT22;2595;53.584;10.084;2022-08-19T03:41:32;21.10;99.90
5154;DHT22;2595;53.584;10.084;2022-08-19T03:43:59;21.10;99.90
5154;DHT22;2595;53.584;10.084;2022-08-19T03:46:27;21.10;99.90
5154;DHT22;2595;53.584;10.084;2022-08-19T03:48:56;21.10;99.90
5154;DHT22;2595;53.584;10.084;2022-08-19T03:51:28;21.10;99.90
5154;DHT22;2595;53.584;10.084;2022-08-19T03:53:57;21.10;99.90
5154;DHT22;2595;53.584;10.084;2022-08-19T03:56:23;21.00;99.90
5154;DHT22;2595;53.584;10.084;2022-08-19T03:58:51;21.00;99.90
5154;DHT22;2595;53.584;10.084;2022-08-19T04:01:20;21.00;99.90
5154;DHT22;2595;53.584;10.084;2022-08-19T04:03:47;21.10;99.90
5154;DHT22;2595;53.584;10.084;2022-08-19T04:06:18;21.10;99.90
5154;DHT22;2595;53.584;10.084;2022-08-19T04:08:47;21.00;99.90
5154;DHT22;2595;53.584;10.084;2022-08-19T04:11:17;21.00;99.90
5154;DHT22;2595;53.584;10.084;2022-08-19T04:13:43;21.00;99.90
5154;DHT22;2595;53.584;10.084;2022-08-19T04:16:10;21.00;99.90
5154;DHT22;2595;53.584;10.084;2022-08-19T04:18:37;21.00;99.90
5154;DHT22;2595;53.584;10.084;2022-08-19T04:21:04;20.90;99.90
5154;DHT22;2595;53.584;10.084;2022-08-19T04:23:30;21.00;99.90
5154;DHT22;2595;53.584;10.084;2022-08-19T04:25:56;21.00;99.90
5154;DHT22;2595;53.584;10.084;2022-08-19T04:28:23;21.00;99.90
5154;DHT22;2595;53.584;10.084;2022-08-19T04:30:52;21.00;99.90
5154;DHT22;2595;53.584;10.084;2022-08-19T04:33:21;21.00;99.90
5154;DHT22;2595;53.584;10.084;2022-08-19T04:35:50;21.00;99.90
5154;DHT22;2595;53.584;10.084;2022-08-19T04:38:18;21.00;99.90
5154;DHT22;2595;53.584;10.084;2022-08-19T04:40:45;21.00;99.90
5154;DHT22;2595;53.584;10.084;2022-08-19T04:43:31;21.00;99.90
5154;DHT22;2595;53.584;10.084;2022-08-19T04:45:57;20.90;99.90
5154;DHT22;2595;53.584;10.084;2022-08-19T04:48:23;21.00;99.90
5154;DHT22;2595;53.584;10.084;2022-08-19T04:50:56;20.90;99.90
5154;DHT22;2595;53.584;10.084;2022-08-19T04:53:30;20.90;99.90
5154;DHT22;2595;53.584;10.084;2022-08-19T04:55:57;20.90;99.90
5154;DHT22;2595;53.584;10.084;2022-08-19T04:58:25;20.90;99.90
5154;DHT22;2595;53.584;10.084;2022-08-19T05:00:51;20.90;99.90
5154;DHT22;2595;53.584;10.084;2022-08-19T05:03:17;20.90;99.90
5154;DHT22;2595;53.584;10.084;2022-08-19T05:05:44;20.80;99.90
5154;DHT22;2595;53.584;10.084;2022-08-19T05:08:11;20.80;99.90
5154;DHT22;2595;53.584;10.084;2022-08-19T05:10:38;20.80;99.90
5154;DHT22;2595;53.584;10.084;2022-08-19T05:13:04;20.80;99.90
5154;DHT22;2595;53.584;10.084;2022-08-19T05:15:30;20.80;99.90
5154;DHT22;2595;53.584;10.084;2022-08-19T05:17:56;20.80;99.90
5154;DHT22;2595;53.584;10.084;2022-08-19T05:20:51;20.70;99.90
5154;DHT22;2595;53.584;10.084;2022-08-19T05:23:35;20.70;99.90
5154;DHT22;2595;53.584;10.084;2022-08-19T05:26:01;20.70;99.90
5154;DHT22;2595;53.584;10.084;2022-08-19T05:28:26;20.70;99.90
5154;DHT22;2595;53.584;10.084;2022-08-19T05:30:52;20.70;99.90
5154;DHT22;2595;53.584;10.084;2022-08-19T05:33:21;20.70;99.90
5154;DHT22;2595;53.584;10.084;2022-08-19T05:35:47;20.70;99.90
5154;DHT22;2595;53.584;10.084;2022-08-19T05:38:16;20.70;99.90
5154;DHT22;2595;53.584;10.084;2022-08-19T05:40:42;20.70;99.90
5154;DHT22;2595;53.584;10.084;2022-08-19T05:43:12;20.60;99.90
5154;DHT22;2595;53.584;10.084;2022-08-19T05:45:41;20.60;99.90
5154;DHT22;2595;53.584;10.084;2022-08-19T05:48:09;20.60;99.90
5154;DHT22;2595;53.584;10.084;2022-08-19T05:50:37;20.70;99.90
5154;DHT22;2595;53.584;10.084;2022-08-19T05:53:02;20.70;99.90
5154;DHT22;2595;53.584;10.084;2022-08-19T05:55:28;20.70;99.90
5154;DHT22;2595;53.584;10.084;2022-08-19T05:57:53;20.70;99.90
5154;DHT22;2595;53.584;10.084;2022-08-19T06:00:19;20.60;99.90
5154;DHT22;2595;53.584;10.084;2022-08-19T06:02:45;20.60;99.90
5154;DHT22;2595;53.584;10.084;2022-08-19T06:05:11;20.60;99.90
5154;DHT22;2595;53.584;10.084;2022-08-19T06:07:38;20.60;99.90
5154;DHT22;2595;53.584;10.084;2022-08-19T06:10:05;20.60;99.90
5154;DHT22;2595;53.584;10.084;2022-08-19T06:12:32;20.60;99.90
5154;DHT22;2595;53.584;10.084;2022-08-19T06:15:11;20.60;99.90
5154;DHT22;2595;53.584;10.084;2022-08-19T06:17:37;20.60;99.90
5154;DHT22;2595;53.584;10.084;2022-08-19T06:20:04;20.60;99.90
5154;DHT22;2595;53.584;10.084;2022-08-19T06:22:30;20.60;99.90
5154;DHT22;2595;53.584;10.084;2022-08-19T06:24:56;20.70;99.90
5154;DHT22;2595;53.584;10.084;2022-08-19T06:27:22;20.70;99.90
5154;DHT22;2595;53.584;10.084;2022-08-19T06:29:48;20.70;99.90
5154;DHT22;2595;53.584;10.084;2022-08-19T06:32:15;20.70;99.90
5154;DHT22;2595;53.584;10.084;2022-08-19T06:34:42;20.70;99.90
5154;DHT22;2595;53.584;10.084;2022-08-19T06:37:07;20.80;99.90
5154;DHT22;2595;53.584;10.084;2022-08-19T06:39:36;20.80;99.90
5154;DHT22;2595;53.584;10.084;2022-08-19T06:42:04;20.80;99.90
5154;DHT22;2595;53.584;10.084;2022-08-19T06:44:34;20.80;99.90
5154;DHT22;2595;53.584;10.084;2022-08-19T06:47:03;20.80;99.90
5154;DHT22;2595;53.584;10.084;2022-08-19T06:49:29;20.80;99.90
5154;DHT22;2595;53.584;10.084;2022-08-19T06:51:57;20.80;99.90
5154;DHT22;2595;53.584;10.084;2022-08-19T06:54:24;20.80;99.90
5154;DHT22;2595;53.584;10.084;2022-08-19T06:56:51;20.80;99.90
5154;DHT22;2595;53.584;10.084;2022-08-19T06:59:20;20.90;99.90
5154;DHT22;2595;53.584;10.084;2022-08-19T07:01:50;20.90;99.90
5154;DHT22;2595;53.584;10.084;2022-08-19T07:04:18;20.90;99.90
5154;DHT22;2595;53.584;10.084;2022-08-19T07:06:44;20.90;99.90
5154;DHT22;2595;53.584;10.084;2022-08-19T07:09:13;20.90;99.90
5154;DHT22;2595;53.584;10.084;2022-08-19T07:11:47;20.90;99.90
5154;DHT22;2595;53.584;10.084;2022-08-19T07:14:13;20.90;99.90
5154;DHT22;2595;53.584;10.084;2022-08-19T07:16:39;20.90;99.90
5154;DHT22;2595;53.584;10.084;2022-08-19T07:19:05;20.90;99.90
5154;DHT22;2595;53.584;10.084;2022-08-19T07:21:31;20.90;99.90
5154;DHT22;2595;53.584;10.084;2022-08-19T07:23:59;20.90;99.90
5154;DHT22;2595;53.584;10.084;2022-08-19T07:26:32;20.90;99.90
5154;DHT22;2595;53.584;10.084;2022-08-19T07:28:58;20.90;99.90
5154;DHT22;2595;53.584;10.084;2022-08-19T07:31:27;20.80;99.90
5154;DHT22;2595;53.584;10.084;2022-08-19T07:33:54;20.90;99.90
5154;DHT22;2595;53.584;10.084;2022-08-19T07:36:26;20.90;99.90
5154;DHT22;2595;53.584;10.084;2022-08-19T07:38:59;20.90;99.90
5154;DHT22;2595;53.584;10.084;2022-08-19T07:41:28;20.90;99.90
5154;DHT22;2595;53.584;10.084;2022-08-19T07:43:54;20.90;99.90
5154;DHT22;2595;53.584;10.084;2022-08-19T07:46:20;21.00;99.90
5154;DHT22;2595;53.584;10.084;2022-08-19T07:48:47;21.00;99.90
5154;DHT22;2595;53.584;10.084;2022-08-19T07:51:16;21.00;99.90
5154;DHT22;2595;53.584;10.084;2022-08-19T07:53:42;21.00;99.90
5154;DHT22;2595;53.584;10.084;2022-08-19T07:56:11;21.00;99.90
5154;DHT22;2595;53.584;10.084;2022-08-19T07:58:40;21.00;99.90
5154;DHT22;2595;53.584;10.084;2022-08-19T08:01:07;21.00;99.90
5154;DHT22;2595;53.584;10.084;2022-08-19T08:03:36;21.00;99.90
5154;DHT22;2595;53.584;10.084;2022-08-19T08:06:20;21.00;99.90
5154;DHT22;2595;53.584;10.084;2022-08-19T08:09:05;21.00;99.90
5154;DHT22;2595;53.584;10.084;2022-08-19T08:11:44;21.00;99.90
5154;DHT22;2595;53.584;10.084;2022-08-19T08:14:15;21.00;99.90
5154;DHT22;2595;53.584;10.084;2022-08-19T08:16:42;21.00;99.90
5154;DHT22;2595;53.584;10.084;2022-08-19T08:19:09;21.00;99.90
5154;DHT22;2595;53.584;10.084;2022-08-19T08:21:35;21.00;99.90
5154;DHT22;2595;53.584;10.084;2022-08-19T08:24:01;21.00;99.90
5154;DHT22;2595;53.584;10.084;2022-08-19T08:26:26;21.00;99.90
5154;DHT22;2595;53.584;10.084;2022-08-19T08:28:53;21.00;99.90
5154;DHT22;2595;53.584;10.084;2022-08-19T08:31:19;21.10;99.90
5154;DHT22;2595;53.584;10.084;2022-08-19T08:33:46;21.10;99.90
5154;DHT22;2595;53.584;10.084;2022-08-19T08:36:12;21.10;99.90
5154;DHT22;2595;53.584;10.084;2022-08-19T08:38:40;21.20;99.90
5154;DHT22;2595;53.584;10.084;2022-08-19T08:43:53;21.10;99.90
5154;DHT22;2595;53.584;10.084;2022-08-19T08:52:10;21.10;99.90
5154;DHT22;2595;53.584;10.084;2022-08-19T08:54:11;21.10;99.90
5154;DHT22;2595;53.584;10.084;2022-08-19T08:56:41;21.10;99.90
5154;DHT22;2595;53.584;10.084;2022-08-19T08:59:21;21.20;99.90
5154;DHT22;2595;53.584;10.084;2022-08-19T09:01:47;21.10;99.90
5154;DHT22;2595;53.584;10.084;2022-08-19T09:04:13;21.20;99.90
5154;DHT22;2595;53.584;10.084;2022-08-19T09:09:36;21.20;99.90
5154;DHT22;2595;53.584;10.084;2022-08-19T09:17:12;21.20;99.90
5154;DHT22;2595;53.584;10.084;2022-08-19T09:19:54;21.20;99.90
5154;DHT22;2595;53.584;10.084;2022-08-19T09:22:20;21.20;99.90
5154;DHT22;2595;53.584;10.084;2022-08-19T09:24:48;21.20;99.90
5154;DHT22;2595;53.584;10.084;2022-08-19T09:27:14;21.20;99.90
5154;DHT22;2595;53.584;10.084;2022-08-19T09:29:40;21.20;99.90
5154;DHT22;2595;53.584;10.084;2022-08-19T09:32:05;21.20;99.90
5154;DHT22;2595;53.584;10.084;2022-08-19T09:34:32;21.20;99.90
5154;DHT22;2595;53.584;10.084;2022-08-19T09:36:58;21.20;99.90
5154;DHT22;2595;53.584;10.084;2022-08-19T09:39:25;21.20;99.90
5154;DHT22;2595;53.584;10.084;2022-08-19T09:41:51;21.20;99.90
5154;DHT22;2595;53.584;10.084;2022-08-19T09:44:18;21.20;99.90
5154;DHT22;2595;53.584;10.084;2022-08-19T09:46:45;21.30;99.90
5154;DHT22;2595;53.584;10.084;2022-08-19T09:49:15;21.30;99.90
5154;DHT22;2595;53.584;10.084;2022-08-19T09:51:42;21.30;99.90
5154;DHT22;2595;53.584;10.084;2022-08-19T09:54:07;21.20;99.90
5154;DHT22;2595;53.584;10.084;2022-08-19T09:56:33;21.20;99.90
5154;DHT22;2595;53.584;10.084;2022-08-19T09:59:00;21.20;99.90
5154;DHT22;2595;53.584;10.084;2022-08-19T10:01:27;21.20;99.90
5154;DHT22;2595;53.584;10.084;2022-08-19T10:03:55;21.30;99.90
5154;DHT22;2595;53.584;10.084;2022-08-19T10:06:24;21.30;99.90
5154;DHT22;2595;53.584;10.084;2022-08-19T10:08:51;21.30;99.90
5154;DHT22;2595;53.584;10.084;2022-08-19T10:11:18;21.20;99.90
5154;DHT22;2595;53.584;10.084;2022-08-19T10:13:44;21.20;99.90
5154;DHT22;2595;53.584;10.084;2022-08-19T10:16:14;21.20;99.90
5154;DHT22;2595;53.584;10.084;2022-08-19T10:18:41;21.20;99.90
5154;DHT22;2595;53.584;10.084;2022-08-19T10:21:13;21.20;99.90
5154;DHT22;2595;53.584;10.084;2022-08-19T10:23:42;21.20;99.90
5154;DHT22;2595;53.584;10.084;2022-08-19T10:26:17;21.20;99.90
5154;DHT22;2595;53.584;10.084;2022-08-19T10:28:43;21.20;99.90
5154;DHT22;2595;53.584;10.084;2022-08-19T10:31:20;21.30;99.90
5154;DHT22;2595;53.584;10.084;2022-08-19T10:33:50;21.30;99.90
5154;DHT22;2595;53.584;10.084;2022-08-19T10:36:18;21.30;99.90
5154;DHT22;2595;53.584;10.084;2022-08-19T10:38:46;21.30;99.90
5154;DHT22;2595;53.584;10.084;2022-08-19T10:41:17;21.40;99.90
5154;DHT22;2595;53.584;10.084;2022-08-19T10:43:43;21.40;99.90
5154;DHT22;2595;53.584;10.084;2022-08-19T10:46:14;21.40;99.90
5154;DHT22;2595;53.584;10.084;2022-08-19T10:48:41;21.50;99.90
5154;DHT22;2595;53.584;10.084;2022-08-19T10:51:07;21.50;99.90
5154;DHT22;2595;53.584;10.084;2022-08-19T10:53:56;21.50;99.90
5154;DHT22;2595;53.584;10.084;2022-08-19T10:56:23;21.50;99.90
5154;DHT22;2595;53.584;10.084;2022-08-19T10:59:07;21.50;99.90
5154;DHT22;2595;53.584;10.084;2022-08-19T11:01:33;21.50;99.90
5154;DHT22;2595;53.584;10.084;2022-08-19T11:04:04;21.50;99.90
5154;DHT22;2595;53.584;10.084;2022-08-19T11:06:31;21.60;99.90
5154;DHT22;2595;53.584;10.084;2022-08-19T11:08:57;21.60;99.90
5154;DHT22;2595;53.584;10.084;2022-08-19T11:11:23;21.60;99.90
5154;DHT22;2595;53.584;10.084;2022-08-19T11:13:49;21.60;99.90
5154;DHT22;2595;53.584;10.084;2022-08-19T11:16:18;21.60;99.90
5154;DHT22;2595;53.584;10.084;2022-08-19T11:18:47;21.60;99.90
5154;DHT22;2595;53.584;10.084;2022-08-19T11:23:43;21.50;99.90
5154;DHT22;2595;53.584;10.084;2022-08-19T11:26:08;21.50;99.90
5154;DHT22;2595;53.584;10.084;2022-08-19T11:28:35;21.50;99.90
5154;DHT22;2595;53.584;10.084;2022-08-19T11:31:00;21.60;99.90
5154;DHT22;2595;53.584;10.084;2022-08-19T11:33:29;21.50;99.90
5154;DHT22;2595;53.584;10.084;2022-08-19T11:35:57;21.60;99.90
5154;DHT22;2595;53.584;10.084;2022-08-19T11:38:23;21.60;99.90
5154;DHT22;2595;53.584;10.084;2022-08-19T11:40:57;21.60;99.90
5154;DHT22;2595;53.584;10.084;2022-08-19T11:43:23;21.60;99.90
5154;DHT22;2595;53.584;10.084;2022-08-19T11:45:48;21.70;99.90
5154;DHT22;2595;53.584;10.084;2022-08-19T11:48:14;21.70;99.90
5154;DHT22;2595;53.584;10.084;2022-08-19T11:50:39;21.70;99.90
5154;DHT22;2595;53.584;10.084;2022-08-19T11:53:07;21.70;99.90
5154;DHT22;2595;53.584;10.084;2022-08-19T11:55:37;21.80;99.90
5154;DHT22;2595;53.584;10.084;2022-08-19T11:58:04;21.80;99.90
5154;DHT22;2595;53.584;10.084;2022-08-19T12:00:32;21.90;99.90
5154;DHT22;2595;53.584;10.084;2022-08-19T12:02:59;21.90;99.90
5154;DHT22;2595;53.584;10.084;2022-08-19T12:05:24;22.00;99.90
5154;DHT22;2595;53.584;10.084;2022-08-19T12:07:50;22.00;99.90
5154;DHT22;2595;53.584;10.084;2022-08-19T12:10:15;22.10;99.90
5154;DHT22;2595;53.584;10.084;2022-08-19T12:12:41;22.10;99.90
5154;DHT22;2595;53.584;10.084;2022-08-19T12:15:09;22.10;99.90
5154;DHT22;2595;53.584;10.084;2022-08-19T12:17:36;22.10;99.90
5154;DHT22;2595;53.584;10.084;2022-08-19T12:20:02;22.10;99.90
5154;DHT22;2595;53.584;10.084;2022-08-19T12:22:28;22.10;99.90
5154;DHT22;2595;53.584;10.084;2022-08-19T12:24:54;22.10;99.90
5154;DHT22;2595;53.584;10.084;2022-08-19T12:27:20;22.10;99.90
5154;DHT22;2595;53.584;10.084;2022-08-19T12:29:46;22.10;99.90
5154;DHT22;2595;53.584;10.084;2022-08-19T12:32:11;22.10;99.90
5154;DHT22;2595;53.584;10.084;2022-08-19T12:34:37;22.10;99.90
5154;DHT22;2595;53.584;10.084;2022-08-19T12:37:05;22.20;99.90
5154;DHT22;2595;53.584;10.084;2022-08-19T12:39:35;22.20;99.90
5154;DHT22;2595;53.584;10.084;2022-08-19T12:42:01;22.20;99.90
5154;DHT22;2595;53.584;10.084;2022-08-19T12:44:26;22.20;99.90
5154;DHT22;2595;53.584;10.084;2022-08-19T12:46:52;22.30;99.90
5154;DHT22;2595;53.584;10.084;2022-08-19T12:49:17;22.40;99.90
5154;DHT22;2595;53.584;10.084;2022-08-19T12:51:43;22.50;99.90
5154;DHT22;2595;53.584;10.084;2022-08-19T12:54:09;22.50;99.90
5154;DHT22;2595;53.584;10.084;2022-08-19T12:56:36;22.50;99.90
5154;DHT22;2595;53.584;10.084;2022-08-19T12:59:03;22.50;99.90
5154;DHT22;2595;53.584;10.084;2022-08-19T13:01:29;22.50;99.90
5154;DHT22;2595;53.584;10.084;2022-08-19T13:03:58;22.50;99.90
5154;DHT22;2595;53.584;10.084;2022-08-19T13:06:25;22.50;99.90
5154;DHT22;2595;53.584;10.084;2022-08-19T13:08:50;22.60;99.90
5154;DHT22;2595;53.584;10.084;2022-08-19T13:11:19;22.60;99.90
5154;DHT22;2595;53.584;10.084;2022-08-19T13:13:48;22.60;99.90
5154;DHT22;2595;53.584;10.084;2022-08-19T13:16:14;22.60;99.90
5154;DHT22;2595;53.584;10.084;2022-08-19T13:18:41;22.70;99.90
5154;DHT22;2595;53.584;10.084;2022-08-19T13:21:09;22.70;99.90
5154;DHT22;2595;53.584;10.084;2022-08-19T13:23:36;22.70;99.90
5154;DHT22;2595;53.584;10.084;2022-08-19T13:26:05;22.80;99.90
5154;DHT22;2595;53.584;10.084;2022-08-19T13:28:32;22.80;99.90
5154;DHT22;2595;53.584;10.084;2022-08-19T13:31:18;22.90;99.90
5154;DHT22;2595;53.584;10.084;2022-08-19T13:34:02;22.80;99.90
5154;DHT22;2595;53.584;10.084;2022-08-19T13:36:28;22.80;99.90
5154;DHT22;2595;53.584;10.084;2022-08-19T13:38:54;22.80;99.90
5154;DHT22;2595;53.584;10.084;2022-08-19T13:41:21;22.80;99.90
5154;DHT22;2595;53.584;10.084;2022-08-19T13:43:47;22.80;99.90
5154;DHT22;2595;53.584;10.084;2022-08-19T13:46:14;22.80;99.90
5154;DHT22;2595;53.584;10.084;2022-08-19T13:48:40;22.80;99.90
5154;DHT22;2595;53.584;10.084;2022-08-19T13:51:07;22.80;99.90
5154;DHT22;2595;53.584;10.084;2022-08-19T13:53:36;22.80;99.90
5154;DHT22;2595;53.584;10.084;2022-08-19T13:56:09;22.80;99.90
5154;DHT22;2595;53.584;10.084;2022-08-19T13:58:35;22.90;99.90
5154;DHT22;2595;53.584;10.084;2022-08-19T14:01:01;22.90;99.90
5154;DHT22;2595;53.584;10.084;2022-08-19T14:03:27;22.90;99.90
5154;DHT22;2595;53.584;10.084;2022-08-19T14:05:53;22.90;99.90
5154;DHT22;2595;53.584;10.084;2022-08-19T14:08:19;22.90;99.90
5154;DHT22;2595;53.584;10.084;2022-08-19T14:10:45;22.90;99.90
5154;DHT22;2595;53.584;10.084;2022-08-19T14:13:14;22.90;99.90
5154;DHT22;2595;53.584;10.084;2022-08-19T14:15:41;22.80;99.90
5154;DHT22;2595;53.584;10.084;2022-08-19T14:18:06;22.80;99.90
5154;DHT22;2595;53.584;10.084;2022-08-19T14:20:35;22.80;99.90
5154;DHT22;2595;53.584;10.084;2022-08-19T14:23:01;22.80;99.90
5154;DHT22;2595;53.584;10.084;2022-08-19T14:25:29;22.80;99.90
5154;DHT22;2595;53.584;10.084;2022-08-19T14:27:55;22.80;99.90
5154;DHT22;2595;53.584;10.084;2022-08-19T14:30:27;22.80;99.90
5154;DHT22;2595;53.584;10.084;2022-08-19T14:32:55;22.80;99.90
5154;DHT22;2595;53.584;10.084;2022-08-19T14:35:21;22.80;99.90
5154;DHT22;2595;53.584;10.084;2022-08-19T14:37:48;22.80;99.90
5154;DHT22;2595;53.584;10.084;2022-08-19T14:40:17;22.80;99.90
5154;DHT22;2595;53.584;10.084;2022-08-19T14:42:44;22.80;99.90
5154;DHT22;2595;53.584;10.084;2022-08-19T14:45:11;22.80;99.90
5154;DHT22;2595;53.584;10.084;2022-08-19T14:47:37;22.80;99.90
5154;DHT22;2595;53.584;10.084;2022-08-19T14:50:08;22.80;99.90
5154;DHT22;2595;53.584;10.084;2022-08-19T14:52:34;22.80;99.90
5154;DHT22;2595;53.584;10.084;2022-08-19T14:55:00;22.80;99.90
5154;DHT22;2595;53.584;10.084;2022-08-19T14:57:26;22.70;99.90
5154;DHT22;2595;53.584;10.084;2022-08-19T14:59:52;22.70;99.90
5154;DHT22;2595;53.584;10.084;2022-08-19T15:02:17;22.70;99.90
5154;DHT22;2595;53.584;10.084;2022-08-19T15:04:43;22.70;99.90
5154;DHT22;2595;53.584;10.084;2022-08-19T15:07:09;22.70;99.90
5154;DHT22;2595;53.584;10.084;2022-08-19T15:09:35;22.80;99.90
5154;DHT22;2595;53.584;10.084;2022-08-19T15:12:01;22.80;99.90
5154;DHT22;2595;53.584;10.084;2022-08-19T15:14:28;22.80;99.90
5154;DHT22;2595;53.584;10.084;2022-08-19T15:17:00;22.80;99.90
5154;DHT22;2595;53.584;10.084;2022-08-19T15:19:26;22.80;99.90
5154;DHT22;2595;53.584;10.084;2022-08-19T15:21:52;22.80;99.90
5154;DHT22;2595;53.584;10.084;2022-08-19T15:24:19;22.80;99.90
5154;DHT22;2595;53.584;10.084;2022-08-19T15:26:45;22.80;99.90
5154;DHT22;2595;53.584;10.084;2022-08-19T15:29:10;22.80;99.90
5154;DHT22;2595;53.584;10.084;2022-08-19T15:31:39;22.80;99.90
5154;DHT22;2595;53.584;10.084;2022-08-19T15:34:05;22.80;99.90
5154;DHT22;2595;53.584;10.084;2022-08-19T15:36:31;22.80;99.90
5154;DHT22;2595;53.584;10.084;2022-08-19T15:38:57;22.80;99.90
5154;DHT22;2595;53.584;10.084;2022-08-19T15:41:26;22.80;99.90
5154;DHT22;2595;53.584;10.084;2022-08-19T15:43:59;22.80;99.90
5154;DHT22;2595;53.584;10.084;2022-08-19T15:46:28;22.80;99.90
5154;DHT22;2595;53.584;10.084;2022-08-19T15:48:55;22.90;99.90
5154;DHT22;2595;53.584;10.084;2022-08-19T15:51:21;22.90;99.90
5154;DHT22;2595;53.584;10.084;2022-08-19T15:53:48;22.90;99.90
5154;DHT22;2595;53.584;10.084;2022-08-19T15:56:14;22.90;99.90
5154;DHT22;2595;53.584;10.084;2022-08-19T15:58:41;22.90;99.90
5154;DHT22;2595;53.584;10.084;2022-08-19T16:01:25;22.90;99.90
5154;DHT22;2595;53.584;10.084;2022-08-19T16:03:55;23.00;99.90
5154;DHT22;2595;53.584;10.084;2022-08-19T16:06:42;23.00;99.90
5154;DHT22;2595;53.584;10.084;2022-08-19T16:09:09;23.10;99.90